Terminal Aerodrome Forecast
Issued by NWS

Home | Current Version | Previous Version | Text Only | Print | Product List | Glossary On
Versions: 1 2 3 4 5 6 7 8 9 10 11 12 13 14 15
920
FTUS45 KRIW 090045 AAA
TAFBPI
TAF AMD
KBPI 090045Z 0901/0924 VRB05KT 1 1/2SM -SN OVC025
     FM091600 VRB05KT 5SM -SN OVC025=

USA.gov is the U.S. government's official web portal to all federal, state and local government web resources and services.